sensor_id;sensor_type;location;lat;lon;timestamp;temperature;humidity
52979;DHT22;63430;53.186;6.598;2023-02-28T00:00:19;4.30;99.90
52979;DHT22;63430;53.186;6.598;2023-02-28T00:02:21;4.30;99.90
52979;DHT22;63430;53.186;6.598;2023-02-28T00:04:27;4.20;99.90
52979;DHT22;63430;53.186;6.598;2023-02-28T00:06:29;4.20;99.90
52979;DHT22;63430;53.186;6.598;2023-02-28T00:08:32;4.20;99.90
52979;DHT22;63430;53.186;6.598;2023-02-28T00:10:34;4.20;99.90
52979;DHT22;63430;53.186;6.598;2023-02-28T00:12:37;4.20;99.90
52979;DHT22;63430;53.186;6.598;2023-02-28T00:14:39;4.20;99.90
52979;DHT22;63430;53.186;6.598;2023-02-28T00:16:42;4.20;99.90
52979;DHT22;63430;53.186;6.598;2023-02-28T00:18:44;4.20;99.90
52979;DHT22;63430;53.186;6.598;2023-02-28T00:20:49;4.20;99.90
52979;DHT22;63430;53.186;6.598;2023-02-28T00:22:53;4.20;99.90
52979;DHT22;63430;53.186;6.598;2023-02-28T00:24:55;4.20;99.90
52979;DHT22;63430;53.186;6.598;2023-02-28T00:26:58;4.20;99.90
52979;DHT22;63430;53.186;6.598;2023-02-28T00:29:01;4.30;99.90
52979;DHT22;63430;53.186;6.598;2023-02-28T00:31:04;4.30;99.90
52979;DHT22;63430;53.186;6.598;2023-02-28T00:33:07;4.20;99.90
52979;DHT22;63430;53.186;6.598;2023-02-28T00:35:10;4.30;99.90
52979;DHT22;63430;53.186;6.598;2023-02-28T00:37:15;4.20;99.90
52979;DHT22;63430;53.186;6.598;2023-02-28T00:39:19;4.20;99.90
52979;DHT22;63430;53.186;6.598;2023-02-28T00:41:26;4.20;99.90
52979;DHT22;63430;53.186;6.598;2023-02-28T00:43:30;4.20;99.90
52979;DHT22;63430;53.186;6.598;2023-02-28T00:45:32;4.20;99.90
52979;DHT22;63430;53.186;6.598;2023-02-28T00:47:35;4.20;99.90
52979;DHT22;63430;53.186;6.598;2023-02-28T00:49:38;4.20;99.90
52979;DHT22;63430;53.186;6.598;2023-02-28T00:51:40;4.20;99.90
52979;DHT22;63430;53.186;6.598;2023-02-28T00:53:45;4.20;99.90
52979;DHT22;63430;53.186;6.598;2023-02-28T00:55:48;4.20;99.90
52979;DHT22;63430;53.186;6.598;2023-02-28T00:57:51;4.20;99.90
52979;DHT22;63430;53.186;6.598;2023-02-28T00:59:54;4.20;99.90
52979;DHT22;63430;53.186;6.598;2023-02-28T01:01:56;4.20;99.90
52979;DHT22;63430;53.186;6.598;2023-02-28T01:03:59;4.20;99.90
52979;DHT22;63430;53.186;6.598;2023-02-28T01:06:01;4.20;99.90
52979;DHT22;63430;53.186;6.598;2023-02-28T01:08:04;4.20;99.90
52979;DHT22;63430;53.186;6.598;2023-02-28T01:10:10;4.20;99.90
52979;DHT22;63430;53.186;6.598;2023-02-28T01:12:13;4.70;99.90
52979;DHT22;63430;53.186;6.598;2023-02-28T01:14:17;4.20;99.90
52979;DHT22;63430;53.186;6.598;2023-02-28T01:16:20;4.30;99.90
52979;DHT22;63430;53.186;6.598;2023-02-28T01:18:23;4.30;99.90
52979;DHT22;63430;53.186;6.598;2023-02-28T01:20:26;4.30;99.90
52979;DHT22;63430;53.186;6.598;2023-02-28T01:22:29;4.30;99.90
52979;DHT22;63430;53.186;6.598;2023-02-28T01:24:32;4.30;99.90
52979;DHT22;63430;53.186;6.598;2023-02-28T01:26:38;4.30;99.90
52979;DHT22;63430;53.186;6.598;2023-02-28T01:28:42;4.30;99.90
52979;DHT22;63430;53.186;6.598;2023-02-28T01:30:48;3.50;99.90
52979;DHT22;63430;53.186;6.598;2023-02-28T01:32:50;4.30;99.90
52979;DHT22;63430;53.186;6.598;2023-02-28T01:34:55;4.40;99.90
52979;DHT22;63430;53.186;6.598;2023-02-28T01:36:58;4.40;99.90
52979;DHT22;63430;53.186;6.598;2023-02-28T01:39:01;4.70;99.90
52979;DHT22;63430;53.186;6.598;2023-02-28T01:41:04;4.30;99.90
52979;DHT22;63430;53.186;6.598;2023-02-28T01:43:20;4.40;99.90
52979;DHT22;63430;53.186;6.598;2023-02-28T01:45:26;4.30;99.90
52979;DHT22;63430;53.186;6.598;2023-02-28T01:47:31;4.30;99.90
52979;DHT22;63430;53.186;6.598;2023-02-28T01:49:35;4.30;99.90
52979;DHT22;63430;53.186;6.598;2023-02-28T01:51:41;4.40;99.90
52979;DHT22;63430;53.186;6.598;2023-02-28T01:53:52;4.30;99.90
52979;DHT22;63430;53.186;6.598;2023-02-28T01:55:56;4.30;99.90
52979;DHT22;63430;53.186;6.598;2023-02-28T01:58:02;4.40;99.90
52979;DHT22;63430;53.186;6.598;2023-02-28T02:00:12;4.30;99.90
52979;DHT22;63430;53.186;6.598;2023-02-28T02:02:23;4.30;99.90
52979;DHT22;63430;53.186;6.598;2023-02-28T02:04:48;4.40;99.90
52979;DHT22;63430;53.186;6.598;2023-02-28T02:06:54;4.40;99.90
52979;DHT22;63430;53.186;6.598;2023-02-28T02:08:57;4.40;99.90
52979;DHT22;63430;53.186;6.598;2023-02-28T02:11:00;4.40;99.90
52979;DHT22;63430;53.186;6.598;2023-02-28T02:13:12;4.40;99.90
52979;DHT22;63430;53.186;6.598;2023-02-28T02:15:23;4.40;99.90
52979;DHT22;63430;53.186;6.598;2023-02-28T02:17:34;4.40;99.90
52979;DHT22;63430;53.186;6.598;2023-02-28T02:22:54;4.50;99.90
52979;DHT22;63430;53.186;6.598;2023-02-28T02:25:21;4.50;99.90
52979;DHT22;63430;53.186;6.598;2023-02-28T02:35:23;4.50;99.90
52979;DHT22;63430;53.186;6.598;2023-02-28T02:37:36;4.50;99.90
52979;DHT22;63430;53.186;6.598;2023-02-28T02:39:47;4.50;99.90
52979;DHT22;63430;53.186;6.598;2023-02-28T02:41:54;4.50;99.90
52979;DHT22;63430;53.186;6.598;2023-02-28T02:44:03;4.50;99.90
52979;DHT22;63430;53.186;6.598;2023-02-28T02:46:13;4.50;99.90
52979;DHT22;63430;53.186;6.598;2023-02-28T02:48:23;4.50;99.90
52979;DHT22;63430;53.186;6.598;2023-02-28T02:50:33;4.50;99.90
52979;DHT22;63430;53.186;6.598;2023-02-28T02:52:40;4.50;99.90
52979;DHT22;63430;53.186;6.598;2023-02-28T02:54:46;4.50;99.90
52979;DHT22;63430;53.186;6.598;2023-02-28T02:56:51;4.50;99.90
52979;DHT22;63430;53.186;6.598;2023-02-28T02:58:57;4.50;99.90
52979;DHT22;63430;53.186;6.598;2023-02-28T03:01:04;4.50;99.90
52979;DHT22;63430;53.186;6.598;2023-02-28T03:03:10;4.50;99.90
52979;DHT22;63430;53.186;6.598;2023-02-28T03:05:18;4.50;99.90
52979;DHT22;63430;53.186;6.598;2023-02-28T03:07:25;4.50;99.90
52979;DHT22;63430;53.186;6.598;2023-02-28T03:09:28;4.50;99.90
52979;DHT22;63430;53.186;6.598;2023-02-28T03:11:35;4.40;99.90
52979;DHT22;63430;53.186;6.598;2023-02-28T03:14:06;4.40;99.90
52979;DHT22;63430;53.186;6.598;2023-02-28T03:16:34;4.40;99.90
52979;DHT22;63430;53.186;6.598;2023-02-28T03:18:45;4.40;99.90
52979;DHT22;63430;53.186;6.598;2023-02-28T03:20:56;4.30;99.90
52979;DHT22;63430;53.186;6.598;2023-02-28T03:23:15;4.40;99.90
52979;DHT22;63430;53.186;6.598;2023-02-28T03:25:22;4.30;99.90
52979;DHT22;63430;53.186;6.598;2023-02-28T03:27:31;4.30;99.90
52979;DHT22;63430;53.186;6.598;2023-02-28T03:29:43;4.20;99.90
52979;DHT22;63430;53.186;6.598;2023-02-28T03:31:53;4.20;99.90
52979;DHT22;63430;53.186;6.598;2023-02-28T03:34:01;4.20;99.90
52979;DHT22;63430;53.186;6.598;2023-02-28T03:36:09;4.10;99.90
52979;DHT22;63430;53.186;6.598;2023-02-28T03:38:20;4.10;99.90
52979;DHT22;63430;53.186;6.598;2023-02-28T03:40:27;4.10;99.90
52979;DHT22;63430;53.186;6.598;2023-02-28T03:42:32;4.00;99.90
52979;DHT22;63430;53.186;6.598;2023-02-28T03:44:39;4.00;99.90
52979;DHT22;63430;53.186;6.598;2023-02-28T03:46:47;4.00;99.90
52979;DHT22;63430;53.186;6.598;2023-02-28T03:48:53;4.00;99.90
52979;DHT22;63430;53.186;6.598;2023-02-28T03:51:02;4.00;99.90
52979;DHT22;63430;53.186;6.598;2023-02-28T03:53:11;4.00;99.90
52979;DHT22;63430;53.186;6.598;2023-02-28T03:55:17;3.90;99.90
52979;DHT22;63430;53.186;6.598;2023-02-28T03:57:26;3.90;99.90
52979;DHT22;63430;53.186;6.598;2023-02-28T03:59:34;3.90;99.90
52979;DHT22;63430;53.186;6.598;2023-02-28T04:01:39;3.90;99.90
52979;DHT22;63430;53.186;6.598;2023-02-28T04:03:44;3.90;99.90
52979;DHT22;63430;53.186;6.598;2023-02-28T04:05:50;3.90;99.90
52979;DHT22;63430;53.186;6.598;2023-02-28T04:07:53;3.90;99.90
52979;DHT22;63430;53.186;6.598;2023-02-28T04:09:56;3.90;99.90
52979;DHT22;63430;53.186;6.598;2023-02-28T04:12:02;3.90;99.90
52979;DHT22;63430;53.186;6.598;2023-02-28T04:14:07;3.90;99.90
52979;DHT22;63430;53.186;6.598;2023-02-28T04:16:10;3.90;99.90
52979;DHT22;63430;53.186;6.598;2023-02-28T04:18:25;4.20;99.90
52979;DHT22;63430;53.186;6.598;2023-02-28T04:20:28;3.80;99.90
52979;DHT22;63430;53.186;6.598;2023-02-28T04:22:30;3.80;99.90
52979;DHT22;63430;53.186;6.598;2023-02-28T04:24:42;3.80;99.90
52979;DHT22;63430;53.186;6.598;2023-02-28T04:26:46;3.80;99.90
52979;DHT22;63430;53.186;6.598;2023-02-28T04:28:51;3.80;99.90
52979;DHT22;63430;53.186;6.598;2023-02-28T04:30:55;3.80;99.90
52979;DHT22;63430;53.186;6.598;2023-02-28T04:32:58;3.70;99.90
52979;DHT22;63430;53.186;6.598;2023-02-28T04:35:01;3.70;99.90
52979;DHT22;63430;53.186;6.598;2023-02-28T04:37:06;3.70;99.90
52979;DHT22;63430;53.186;6.598;2023-02-28T04:39:15;3.60;99.90
52979;DHT22;63430;53.186;6.598;2023-02-28T04:41:19;3.60;99.90
52979;DHT22;63430;53.186;6.598;2023-02-28T04:43:22;3.60;99.90
52979;DHT22;63430;53.186;6.598;2023-02-28T04:45:28;3.60;99.90
52979;DHT22;63430;53.186;6.598;2023-02-28T04:47:34;3.60;99.90
52979;DHT22;63430;53.186;6.598;2023-02-28T04:49:36;3.50;99.90
52979;DHT22;63430;53.186;6.598;2023-02-28T04:51:42;3.50;99.90
52979;DHT22;63430;53.186;6.598;2023-02-28T04:53:44;3.50;99.90
52979;DHT22;63430;53.186;6.598;2023-02-28T04:55:47;3.50;99.90
52979;DHT22;63430;53.186;6.598;2023-02-28T04:57:52;3.50;99.90
52979;DHT22;63430;53.186;6.598;2023-02-28T04:59:55;3.40;99.90
52979;DHT22;63430;53.186;6.598;2023-02-28T05:02:00;3.40;99.90
52979;DHT22;63430;53.186;6.598;2023-02-28T05:04:04;3.40;99.90
52979;DHT22;63430;53.186;6.598;2023-02-28T05:06:07;3.40;99.90
52979;DHT22;63430;53.186;6.598;2023-02-28T05:08:10;3.40;99.90
52979;DHT22;63430;53.186;6.598;2023-02-28T05:10:12;3.40;99.90
52979;DHT22;63430;53.186;6.598;2023-02-28T05:12:15;3.40;99.90
52979;DHT22;63430;53.186;6.598;2023-02-28T05:14:18;3.40;99.90
52979;DHT22;63430;53.186;6.598;2023-02-28T05:16:22;3.40;99.90
52979;DHT22;63430;53.186;6.598;2023-02-28T05:18:27;3.30;99.90
52979;DHT22;63430;53.186;6.598;2023-02-28T05:20:30;3.30;99.90
52979;DHT22;63430;53.186;6.598;2023-02-28T05:22:32;3.30;99.90
52979;DHT22;63430;53.186;6.598;2023-02-28T05:24:35;3.30;99.90
52979;DHT22;63430;53.186;6.598;2023-02-28T05:26:39;3.30;99.90
52979;DHT22;63430;53.186;6.598;2023-02-28T05:28:42;3.30;99.90
52979;DHT22;63430;53.186;6.598;2023-02-28T05:30:44;3.20;99.90
52979;DHT22;63430;53.186;6.598;2023-02-28T05:32:50;3.30;99.90
52979;DHT22;63430;53.186;6.598;2023-02-28T05:34:56;3.20;99.90
52979;DHT22;63430;53.186;6.598;2023-02-28T05:36:58;3.20;99.90
52979;DHT22;63430;53.186;6.598;2023-02-28T05:39:01;3.20;99.90
52979;DHT22;63430;53.186;6.598;2023-02-28T05:41:08;3.20;99.90
52979;DHT22;63430;53.186;6.598;2023-02-28T05:43:11;3.50;99.90
52979;DHT22;63430;53.186;6.598;2023-02-28T05:45:14;3.20;99.90
52979;DHT22;63430;53.186;6.598;2023-02-28T05:47:17;3.20;99.90
52979;DHT22;63430;53.186;6.598;2023-02-28T05:49:20;3.20;99.90
52979;DHT22;63430;53.186;6.598;2023-02-28T05:51:25;3.10;99.90
52979;DHT22;63430;53.186;6.598;2023-02-28T05:53:28;3.30;99.90
52979;DHT22;63430;53.186;6.598;2023-02-28T05:55:31;3.10;99.90
52979;DHT22;63430;53.186;6.598;2023-02-28T05:57:33;3.10;99.90
52979;DHT22;63430;53.186;6.598;2023-02-28T05:59:36;3.10;99.90
52979;DHT22;63430;53.186;6.598;2023-02-28T06:01:43;3.10;99.90
52979;DHT22;63430;53.186;6.598;2023-02-28T06:03:51;3.10;99.90
52979;DHT22;63430;53.186;6.598;2023-02-28T06:05:53;3.10;99.90
52979;DHT22;63430;53.186;6.598;2023-02-28T06:07:59;2.00;99.90
52979;DHT22;63430;53.186;6.598;2023-02-28T06:10:05;3.10;99.90
52979;DHT22;63430;53.186;6.598;2023-02-28T06:12:09;3.10;99.90
52979;DHT22;63430;53.186;6.598;2023-02-28T06:14:15;3.10;99.90
52979;DHT22;63430;53.186;6.598;2023-02-28T06:16:18;3.10;99.90
52979;DHT22;63430;53.186;6.598;2023-02-28T06:18:21;3.10;99.90
52979;DHT22;63430;53.186;6.598;2023-02-28T06:20:25;3.10;99.90
52979;DHT22;63430;53.186;6.598;2023-02-28T06:22:34;3.00;99.90
52979;DHT22;63430;53.186;6.598;2023-02-28T06:24:40;3.10;99.90
52979;DHT22;63430;53.186;6.598;2023-02-28T06:26:42;3.10;99.90
52979;DHT22;63430;53.186;6.598;2023-02-28T06:28:45;3.00;99.90
52979;DHT22;63430;53.186;6.598;2023-02-28T06:30:48;3.00;99.90
52979;DHT22;63430;53.186;6.598;2023-02-28T06:32:50;3.00;99.90
52979;DHT22;63430;53.186;6.598;2023-02-28T06:34:54;3.00;99.90
52979;DHT22;63430;53.186;6.598;2023-02-28T06:36:57;3.00;99.90
52979;DHT22;63430;53.186;6.598;2023-02-28T06:39:15;3.00;99.90
52979;DHT22;63430;53.186;6.598;2023-02-28T06:41:20;3.00;99.90
52979;DHT22;63430;53.186;6.598;2023-02-28T06:43:24;3.00;99.90
52979;DHT22;63430;53.186;6.598;2023-02-28T06:45:28;3.00;99.90
52979;DHT22;63430;53.186;6.598;2023-02-28T06:47:31;3.00;99.90
52979;DHT22;63430;53.186;6.598;2023-02-28T06:49:34;2.90;99.90
52979;DHT22;63430;53.186;6.598;2023-02-28T06:51:38;2.90;99.90
52979;DHT22;63430;53.186;6.598;2023-02-28T06:53:41;2.90;99.90
52979;DHT22;63430;53.186;6.598;2023-02-28T06:55:45;2.80;99.90
52979;DHT22;63430;53.186;6.598;2023-02-28T06:57:50;2.80;99.90
52979;DHT22;63430;53.186;6.598;2023-02-28T06:59:53;2.80;99.90
52979;DHT22;63430;53.186;6.598;2023-02-28T07:01:56;2.80;99.90
52979;DHT22;63430;53.186;6.598;2023-02-28T07:03:59;2.80;99.90
52979;DHT22;63430;53.186;6.598;2023-02-28T07:06:02;2.80;99.90
52979;DHT22;63430;53.186;6.598;2023-02-28T07:08:06;2.80;99.90
52979;DHT22;63430;53.186;6.598;2023-02-28T07:10:18;2.80;99.90
52979;DHT22;63430;53.186;6.598;2023-02-28T07:12:21;3.30;99.90
52979;DHT22;63430;53.186;6.598;2023-02-28T07:14:26;2.70;99.90
52979;DHT22;63430;53.186;6.598;2023-02-28T07:16:29;2.80;99.90
52979;DHT22;63430;53.186;6.598;2023-02-28T07:18:32;2.70;99.90
52979;DHT22;63430;53.186;6.598;2023-02-28T07:20:35;2.80;99.90
52979;DHT22;63430;53.186;6.598;2023-02-28T07:22:38;2.80;99.90
52979;DHT22;63430;53.186;6.598;2023-02-28T07:24:40;2.70;99.90
52979;DHT22;63430;53.186;6.598;2023-02-28T07:26:43;2.80;99.90
52979;DHT22;63430;53.186;6.598;2023-02-28T07:28:46;2.80;99.90
52979;DHT22;63430;53.186;6.598;2023-02-28T07:30:52;2.80;99.90
52979;DHT22;63430;53.186;6.598;2023-02-28T07:32:54;2.80;99.90
52979;DHT22;63430;53.186;6.598;2023-02-28T07:35:00;2.80;99.90
52979;DHT22;63430;53.186;6.598;2023-02-28T07:37:02;2.80;99.90
52979;DHT22;63430;53.186;6.598;2023-02-28T07:39:05;2.80;99.90
52979;DHT22;63430;53.186;6.598;2023-02-28T07:41:08;2.80;99.90
52979;DHT22;63430;53.186;6.598;2023-02-28T07:43:11;2.80;99.90
52979;DHT22;63430;53.186;6.598;2023-02-28T07:45:13;2.80;99.90
52979;DHT22;63430;53.186;6.598;2023-02-28T07:47:20;2.80;99.90
52979;DHT22;63430;53.186;6.598;2023-02-28T07:49:37;2.90;99.90
52979;DHT22;63430;53.186;6.598;2023-02-28T07:51:39;2.90;99.90
52979;DHT22;63430;53.186;6.598;2023-02-28T07:53:42;2.90;99.90
52979;DHT22;63430;53.186;6.598;2023-02-28T07:55:44;2.90;99.90
52979;DHT22;63430;53.186;6.598;2023-02-28T07:57:47;2.90;99.90
52979;DHT22;63430;53.186;6.598;2023-02-28T07:59:50;2.90;99.90
52979;DHT22;63430;53.186;6.598;2023-02-28T08:01:52;3.00;99.90
52979;DHT22;63430;53.186;6.598;2023-02-28T08:03:58;3.00;99.90
52979;DHT22;63430;53.186;6.598;2023-02-28T08:06:00;3.00;99.90
52979;DHT22;63430;53.186;6.598;2023-02-28T08:08:05;3.10;99.90
52979;DHT22;63430;53.186;6.598;2023-02-28T08:10:09;3.10;99.90
52979;DHT22;63430;53.186;6.598;2023-02-28T08:12:19;3.10;99.90
52979;DHT22;63430;53.186;6.598;2023-02-28T08:14:22;3.20;99.90
52979;DHT22;63430;53.186;6.598;2023-02-28T08:16:24;3.20;99.90
52979;DHT22;63430;53.186;6.598;2023-02-28T08:18:27;3.40;99.90
52979;DHT22;63430;53.186;6.598;2023-02-28T08:20:33;3.30;99.90
52979;DHT22;63430;53.186;6.598;2023-02-28T08:22:35;3.30;99.90
52979;DHT22;63430;53.186;6.598;2023-02-28T08:24:38;3.40;99.90
52979;DHT22;63430;53.186;6.598;2023-02-28T08:26:42;3.40;99.90
52979;DHT22;63430;53.186;6.598;2023-02-28T08:28:46;3.50;99.90
52979;DHT22;63430;53.186;6.598;2023-02-28T08:30:49;3.60;99.90
52979;DHT22;63430;53.186;6.598;2023-02-28T08:32:52;3.60;99.90
52979;DHT22;63430;53.186;6.598;2023-02-28T08:34:54;3.70;99.90
52979;DHT22;63430;53.186;6.598;2023-02-28T08:36:59;3.70;99.90
52979;DHT22;63430;53.186;6.598;2023-02-28T08:39:02;3.70;99.90
52979;DHT22;63430;53.186;6.598;2023-02-28T08:41:07;3.80;99.90
52979;DHT22;63430;53.186;6.598;2023-02-28T08:43:17;3.80;99.90
52979;DHT22;63430;53.186;6.598;2023-02-28T08:45:19;3.80;99.90
52979;DHT22;63430;53.186;6.598;2023-02-28T08:47:22;3.80;99.90
52979;DHT22;63430;53.186;6.598;2023-02-28T08:49:25;3.90;99.90
52979;DHT22;63430;53.186;6.598;2023-02-28T08:51:28;3.90;99.90
52979;DHT22;63430;53.186;6.598;2023-02-28T08:53:35;4.00;99.90
52979;DHT22;63430;53.186;6.598;2023-02-28T08:55:37;3.90;99.90
52979;DHT22;63430;53.186;6.598;2023-02-28T08:57:40;3.90;99.90
52979;DHT22;63430;53.186;6.598;2023-02-28T08:59:42;4.00;99.90
52979;DHT22;63430;53.186;6.598;2023-02-28T09:01:49;4.00;99.90
52979;DHT22;63430;53.186;6.598;2023-02-28T09:03:51;4.10;99.90
52979;DHT22;63430;53.186;6.598;2023-02-28T09:05:55;4.10;99.90
52979;DHT22;63430;53.186;6.598;2023-02-28T09:07:58;4.10;99.90
52979;DHT22;63430;53.186;6.598;2023-02-28T09:10:04;4.20;99.90
52979;DHT22;63430;53.186;6.598;2023-02-28T09:12:07;4.20;99.90
52979;DHT22;63430;53.186;6.598;2023-02-28T09:14:10;4.30;99.90
52979;DHT22;63430;53.186;6.598;2023-02-28T09:16:14;4.40;99.90
52979;DHT22;63430;53.186;6.598;2023-02-28T09:18:18;4.40;99.90
52979;DHT22;63430;53.186;6.598;2023-02-28T09:20:21;4.50;99.90
52979;DHT22;63430;53.186;6.598;2023-02-28T09:22:23;4.60;99.90
52979;DHT22;63430;53.186;6.598;2023-02-28T09:24:29;4.60;99.90
52979;DHT22;63430;53.186;6.598;2023-02-28T09:26:37;4.60;99.90
52979;DHT22;63430;53.186;6.598;2023-02-28T09:28:48;4.70;99.90
52979;DHT22;63430;53.186;6.598;2023-02-28T09:30:53;4.80;99.90
52979;DHT22;63430;53.186;6.598;2023-02-28T09:32:56;4.90;99.90
52979;DHT22;63430;53.186;6.598;2023-02-28T09:34:58;4.90;99.90
52979;DHT22;63430;53.186;6.598;2023-02-28T09:37:01;4.90;99.90
52979;DHT22;63430;53.186;6.598;2023-02-28T09:39:04;5.00;99.90
52979;DHT22;63430;53.186;6.598;2023-02-28T09:41:13;5.10;99.90
52979;DHT22;63430;53.186;6.598;2023-02-28T09:43:21;5.30;99.90
52979;DHT22;63430;53.186;6.598;2023-02-28T09:45:29;5.30;99.90
52979;DHT22;63430;53.186;6.598;2023-02-28T09:47:38;5.70;99.90
52979;DHT22;63430;53.186;6.598;2023-02-28T09:49:45;5.50;99.90
52979;DHT22;63430;53.186;6.598;2023-02-28T09:51:51;5.50;99.90
52979;DHT22;63430;53.186;6.598;2023-02-28T09:54:02;5.50;99.90
52979;DHT22;63430;53.186;6.598;2023-02-28T09:56:08;5.60;99.90
52979;DHT22;63430;53.186;6.598;2023-02-28T09:58:22;5.60;99.90
52979;DHT22;63430;53.186;6.598;2023-02-28T10:00:34;5.60;99.90
52979;DHT22;63430;53.186;6.598;2023-02-28T10:02:58;5.70;99.90
52979;DHT22;63430;53.186;6.598;2023-02-28T10:05:06;5.80;99.90
52979;DHT22;63430;53.186;6.598;2023-02-28T10:07:21;5.80;99.90
52979;DHT22;63430;53.186;6.598;2023-02-28T10:09:26;5.90;99.90
52979;DHT22;63430;53.186;6.598;2023-02-28T10:11:30;6.00;99.90
52979;DHT22;63430;53.186;6.598;2023-02-28T10:13:43;6.10;99.90
52979;DHT22;63430;53.186;6.598;2023-02-28T10:15:52;6.20;99.90
52979;DHT22;63430;53.186;6.598;2023-02-28T10:17:58;6.20;99.90
52979;DHT22;63430;53.186;6.598;2023-02-28T10:20:15;6.30;99.90
52979;DHT22;63430;53.186;6.598;2023-02-28T10:22:26;6.50;99.90
52979;DHT22;63430;53.186;6.598;2023-02-28T10:24:33;6.60;99.90
52979;DHT22;63430;53.186;6.598;2023-02-28T10:26:37;6.60;99.90
52979;DHT22;63430;53.186;6.598;2023-02-28T10:28:42;6.60;99.90
52979;DHT22;63430;53.186;6.598;2023-02-28T10:30:49;6.70;99.90
52979;DHT22;63430;53.186;6.598;2023-02-28T10:32:53;6.70;99.90
52979;DHT22;63430;53.186;6.598;2023-02-28T10:34:58;6.80;99.90
52979;DHT22;63430;53.186;6.598;2023-02-28T10:37:03;6.80;99.90
52979;DHT22;63430;53.186;6.598;2023-02-28T10:39:34;6.90;99.90
52979;DHT22;63430;53.186;6.598;2023-02-28T10:41:42;7.00;99.90
52979;DHT22;63430;53.186;6.598;2023-02-28T10:43:47;7.00;99.90
52979;DHT22;63430;53.186;6.598;2023-02-28T10:45:58;7.10;99.90
52979;DHT22;63430;53.186;6.598;2023-02-28T10:48:04;7.30;99.90
52979;DHT22;63430;53.186;6.598;2023-02-28T10:50:28;7.20;99.90
52979;DHT22;63430;53.186;6.598;2023-02-28T10:52:36;7.30;99.90
52979;DHT22;63430;53.186;6.598;2023-02-28T10:54:44;7.50;99.90
52979;DHT22;63430;53.186;6.598;2023-02-28T10:57:05;7.50;99.90
52979;DHT22;63430;53.186;6.598;2023-02-28T10:59:27;7.60;99.90
52979;DHT22;63430;53.186;6.598;2023-02-28T11:01:38;7.70;99.90
52979;DHT22;63430;53.186;6.598;2023-02-28T11:03:50;7.70;99.90
52979;DHT22;63430;53.186;6.598;2023-02-28T11:05:52;7.70;99.90
52979;DHT22;63430;53.186;6.598;2023-02-28T11:08:05;7.80;99.90
52979;DHT22;63430;53.186;6.598;2023-02-28T11:10:18;8.00;99.90
52979;DHT22;63430;53.186;6.598;2023-02-28T11:12:24;7.90;99.90
52979;DHT22;63430;53.186;6.598;2023-02-28T11:14:32;7.90;99.90
52979;DHT22;63430;53.186;6.598;2023-02-28T11:16:37;7.90;99.90
52979;DHT22;63430;53.186;6.598;2023-02-28T11:18:48;8.00;99.90
52979;DHT22;63430;53.186;6.598;2023-02-28T11:20:54;8.10;99.90
52979;DHT22;63430;53.186;6.598;2023-02-28T11:22:59;8.10;99.90
52979;DHT22;63430;53.186;6.598;2023-02-28T11:25:16;8.20;99.90
52979;DHT22;63430;53.186;6.598;2023-02-28T11:27:45;8.30;99.90
52979;DHT22;63430;53.186;6.598;2023-02-28T11:29:51;8.30;99.90
52979;DHT22;63430;53.186;6.598;2023-02-28T11:32:12;8.40;99.90
52979;DHT22;63430;53.186;6.598;2023-02-28T11:34:25;8.50;99.90
52979;DHT22;63430;53.186;6.598;2023-02-28T11:36:31;8.50;99.90
52979;DHT22;63430;53.186;6.598;2023-02-28T11:38:34;8.60;99.90
52979;DHT22;63430;53.186;6.598;2023-02-28T11:40:45;8.60;99.90
52979;DHT22;63430;53.186;6.598;2023-02-28T11:42:55;8.60;99.90
52979;DHT22;63430;53.186;6.598;2023-02-28T11:45:14;8.60;99.90
52979;DHT22;63430;53.186;6.598;2023-02-28T11:47:24;8.50;99.90
52979;DHT22;63430;53.186;6.598;2023-02-28T11:49:35;8.50;99.90
52979;DHT22;63430;53.186;6.598;2023-02-28T11:51:47;8.50;99.90
52979;DHT22;63430;53.186;6.598;2023-02-28T11:54:07;8.70;99.90
52979;DHT22;63430;53.186;6.598;2023-02-28T11:56:23;8.90;99.90
52979;DHT22;63430;53.186;6.598;2023-02-28T11:58:33;9.00;99.90
52979;DHT22;63430;53.186;6.598;2023-02-28T12:01:00;9.20;99.90
52979;DHT22;63430;53.186;6.598;2023-02-28T12:03:18;9.20;99.90
52979;DHT22;63430;53.186;6.598;2023-02-28T12:05:29;9.30;99.90
52979;DHT22;63430;53.186;6.598;2023-02-28T12:07:42;9.40;99.90
52979;DHT22;63430;53.186;6.598;2023-02-28T12:09:53;10.00;99.90
52979;DHT22;63430;53.186;6.598;2023-02-28T12:12:03;9.50;99.90
52979;DHT22;63430;53.186;6.598;2023-02-28T12:14:50;9.50;99.90
52979;DHT22;63430;53.186;6.598;2023-02-28T12:17:07;9.60;99.90
52979;DHT22;63430;53.186;6.598;2023-02-28T12:19:20;9.50;99.90
52979;DHT22;63430;53.186;6.598;2023-02-28T12:21:31;9.60;99.90
52979;DHT22;63430;53.186;6.598;2023-02-28T12:23:52;9.60;99.90
52979;DHT22;63430;53.186;6.598;2023-02-28T12:26:15;9.60;99.90
52979;DHT22;63430;53.186;6.598;2023-02-28T12:28:24;9.60;99.90
52979;DHT22;63430;53.186;6.598;2023-02-28T12:30:29;9.60;99.90
52979;DHT22;63430;53.186;6.598;2023-02-28T12:32:38;9.70;99.90
52979;DHT22;63430;53.186;6.598;2023-02-28T12:34:44;9.60;99.90
52979;DHT22;63430;53.186;6.598;2023-02-28T12:36:48;10.00;99.90
52979;DHT22;63430;53.186;6.598;2023-02-28T12:38:56;9.60;99.90
52979;DHT22;63430;53.186;6.598;2023-02-28T12:41:03;9.70;99.90
52979;DHT22;63430;53.186;6.598;2023-02-28T12:43:20;9.50;99.90
52979;DHT22;63430;53.186;6.598;2023-02-28T12:45:27;9.60;99.90
52979;DHT22;63430;53.186;6.598;2023-02-28T12:47:31;9.50;99.90
52979;DHT22;63430;53.186;6.598;2023-02-28T12:49:39;9.70;99.90
52979;DHT22;63430;53.186;6.598;2023-02-28T12:51:44;9.60;99.90
52979;DHT22;63430;53.186;6.598;2023-02-28T12:53:54;9.60;99.90
52979;DHT22;63430;53.186;6.598;2023-02-28T12:56:08;9.40;99.90
52979;DHT22;63430;53.186;6.598;2023-02-28T12:58:20;9.30;99.90
52979;DHT22;63430;53.186;6.598;2023-02-28T13:00:35;9.30;99.90
52979;DHT22;63430;53.186;6.598;2023-02-28T13:03:07;9.40;99.90
52979;DHT22;63430;53.186;6.598;2023-02-28T13:05:27;9.30;99.90
52979;DHT22;63430;53.186;6.598;2023-02-28T13:10:04;9.00;99.90
52979;DHT22;63430;53.186;6.598;2023-02-28T13:12:13;9.10;99.90
52979;DHT22;63430;53.186;6.598;2023-02-28T13:14:22;9.10;99.90
52979;DHT22;63430;53.186;6.598;2023-02-28T13:16:25;9.40;99.90
52979;DHT22;63430;53.186;6.598;2023-02-28T13:18:31;8.60;99.90
52979;DHT22;63430;53.186;6.598;2023-02-28T13:20:37;8.60;99.90
52979;DHT22;63430;53.186;6.598;2023-02-28T13:22:52;8.50;99.90
52979;DHT22;63430;53.186;6.598;2023-02-28T13:24:55;8.50;99.90
52979;DHT22;63430;53.186;6.598;2023-02-28T13:29:34;8.30;99.90
52979;DHT22;63430;53.186;6.598;2023-02-28T13:34:15;8.10;99.90
52979;DHT22;63430;53.186;6.598;2023-02-28T13:36:28;8.00;99.90
52979;DHT22;63430;53.186;6.598;2023-02-28T13:38:36;8.00;99.90
52979;DHT22;63430;53.186;6.598;2023-02-28T13:40:39;8.10;99.90
52979;DHT22;63430;53.186;6.598;2023-02-28T13:42:47;8.10;99.90
52979;DHT22;63430;53.186;6.598;2023-02-28T13:45:22;8.60;99.90
52979;DHT22;63430;53.186;6.598;2023-02-28T13:47:29;8.50;99.90
52979;DHT22;63430;53.186;6.598;2023-02-28T13:49:32;8.50;99.90
52979;DHT22;63430;53.186;6.598;2023-02-28T13:51:43;8.50;99.90